sensor_id;sensor_type;location;lat;lon;timestamp;P1;durP1;ratioP1;P2;durP2;ratioP2
63555;SDS011;49700;48.072;7.800;2024-03-02T00:00:03;4.45;;;3.88;;
63555;SDS011;49700;48.072;7.800;2024-03-02T00:02:40;5.82;;;4.20;;
63555;SDS011;49700;48.072;7.800;2024-03-02T00:05:11;4.38;;;3.97;;
63555;SDS011;49700;48.072;7.800;2024-03-02T00:07:37;5.25;;;3.13;;
63555;SDS011;49700;48.072;7.800;2024-03-02T00:10:08;7.13;;;3.65;;
63555;SDS011;49700;48.072;7.800;2024-03-02T00:12:37;3.17;;;2.88;;
63555;SDS011;49700;48.072;7.800;2024-03-02T00:15:47;7.70;;;4.85;;
63555;SDS011;49700;48.072;7.800;2024-03-02T00:18:11;5.97;;;3.65;;
63555;SDS011;49700;48.072;7.800;2024-03-02T00:20:38;8.35;;;5.90;;
63555;SDS011;49700;48.072;7.800;2024-03-02T00:23:05;8.32;;;4.72;;
63555;SDS011;49700;48.072;7.800;2024-03-02T00:25:44;6.57;;;4.60;;
63555;SDS011;49700;48.072;7.800;2024-03-02T00:33:15;3.85;;;3.55;;
63555;SDS011;49700;48.072;7.800;2024-03-02T00:35:43;3.73;;;3.07;;
63555;SDS011;49700;48.072;7.800;2024-03-02T00:38:09;5.90;;;3.53;;
63555;SDS011;49700;48.072;7.800;2024-03-02T00:40:35;4.83;;;3.43;;
63555;SDS011;49700;48.072;7.800;2024-03-02T00:43:01;5.40;;;3.80;;
63555;SDS011;49700;48.072;7.800;2024-03-02T00:45:28;4.15;;;3.08;;
63555;SDS011;49700;48.072;7.800;2024-03-02T00:47:54;5.70;;;4.07;;
63555;SDS011;49700;48.072;7.800;2024-03-02T00:50:19;5.30;;;3.17;;
63555;SDS011;49700;48.072;7.800;2024-03-02T00:52:45;6.40;;;5.00;;
63555;SDS011;49700;48.072;7.800;2024-03-02T00:55:13;8.10;;;4.80;;
63555;SDS011;49700;48.072;7.800;2024-03-02T00:57:39;11.50;;;5.03;;
63555;SDS011;49700;48.072;7.800;2024-03-02T01:00:05;12.18;;;4.53;;
63555;SDS011;49700;48.072;7.800;2024-03-02T01:02:34;5.00;;;3.47;;
63555;SDS011;49700;48.072;7.800;2024-03-02T01:05:00;4.93;;;3.80;;
63555;SDS011;49700;48.072;7.800;2024-03-02T01:07:26;9.10;;;3.77;;
63555;SDS011;49700;48.072;7.800;2024-03-02T01:09:51;5.25;;;4.45;;
63555;SDS011;49700;48.072;7.800;2024-03-02T01:12:16;4.13;;;3.40;;
63555;SDS011;49700;48.072;7.800;2024-03-02T01:14:42;6.80;;;3.50;;
63555;SDS011;49700;48.072;7.800;2024-03-02T01:17:07;3.73;;;3.23;;
63555;SDS011;49700;48.072;7.800;2024-03-02T01:19:33;6.30;;;4.07;;
63555;SDS011;49700;48.072;7.800;2024-03-02T01:21:58;11.17;;;4.30;;
63555;SDS011;49700;48.072;7.800;2024-03-02T01:24:24;3.80;;;2.90;;
63555;SDS011;49700;48.072;7.800;2024-03-02T01:26:49;5.40;;;3.43;;
63555;SDS011;49700;48.072;7.800;2024-03-02T01:29:15;3.10;;;2.80;;
63555;SDS011;49700;48.072;7.800;2024-03-02T01:31:41;4.70;;;3.40;;
63555;SDS011;49700;48.072;7.800;2024-03-02T01:34:07;4.88;;;3.78;;
63555;SDS011;49700;48.072;7.800;2024-03-02T01:36:33;5.10;;;3.70;;
63555;SDS011;49700;48.072;7.800;2024-03-02T01:38:58;8.40;;;4.20;;
63555;SDS011;49700;48.072;7.800;2024-03-02T01:41:24;4.43;;;3.50;;
63555;SDS011;49700;48.072;7.800;2024-03-02T01:43:49;7.73;;;3.80;;
63555;SDS011;49700;48.072;7.800;2024-03-02T01:46:15;5.07;;;3.37;;
63555;SDS011;49700;48.072;7.800;2024-03-02T01:48:41;5.30;;;4.27;;
63555;SDS011;49700;48.072;7.800;2024-03-02T01:51:06;4.93;;;3.10;;
63555;SDS011;49700;48.072;7.800;2024-03-02T01:53:32;5.07;;;3.30;;
63555;SDS011;49700;48.072;7.800;2024-03-02T01:55:58;6.23;;;4.50;;
63555;SDS011;49700;48.072;7.800;2024-03-02T01:58:27;5.25;;;4.10;;
63555;SDS011;49700;48.072;7.800;2024-03-02T02:00:53;10.55;;;4.35;;
63555;SDS011;49700;48.072;7.800;2024-03-02T02:03:18;5.70;;;4.23;;
63555;SDS011;49700;48.072;7.800;2024-03-02T02:05:43;6.20;;;4.20;;
63555;SDS011;49700;48.072;7.800;2024-03-02T02:08:09;5.87;;;4.23;;
63555;SDS011;49700;48.072;7.800;2024-03-02T02:10:35;5.80;;;4.60;;
63555;SDS011;49700;48.072;7.800;2024-03-02T02:13:01;6.35;;;4.50;;
63555;SDS011;49700;48.072;7.800;2024-03-02T02:15:28;3.70;;;3.40;;
63555;SDS011;49700;48.072;7.800;2024-03-02T02:17:54;4.53;;;3.35;;
63555;SDS011;49700;48.072;7.800;2024-03-02T02:20:23;5.82;;;3.50;;
63555;SDS011;49700;48.072;7.800;2024-03-02T02:22:54;3.50;;;3.03;;
63555;SDS011;49700;48.072;7.800;2024-03-02T02:25:24;5.13;;;3.58;;
63555;SDS011;49700;48.072;7.800;2024-03-02T02:27:49;4.37;;;3.47;;
63555;SDS011;49700;48.072;7.800;2024-03-02T02:30:18;5.10;;;3.37;;
63555;SDS011;49700;48.072;7.800;2024-03-02T02:32:45;6.57;;;4.18;;
63555;SDS011;49700;48.072;7.800;2024-03-02T02:35:10;4.97;;;3.53;;
63555;SDS011;49700;48.072;7.800;2024-03-02T02:37:35;5.93;;;3.87;;
63555;SDS011;49700;48.072;7.800;2024-03-02T02:40:02;6.18;;;4.60;;
63555;SDS011;49700;48.072;7.800;2024-03-02T02:42:30;5.78;;;4.07;;
63555;SDS011;49700;48.072;7.800;2024-03-02T02:44:55;4.70;;;3.50;;
63555;SDS011;49700;48.072;7.800;2024-03-02T02:47:21;7.67;;;3.80;;
63555;SDS011;49700;48.072;7.800;2024-03-02T02:49:46;5.13;;;3.70;;
63555;SDS011;49700;48.072;7.800;2024-03-02T02:52:12;4.60;;;3.97;;
63555;SDS011;49700;48.072;7.800;2024-03-02T02:54:37;6.17;;;4.60;;
63555;SDS011;49700;48.072;7.800;2024-03-02T02:57:03;4.53;;;3.33;;
63555;SDS011;49700;48.072;7.800;2024-03-02T02:59:28;7.10;;;4.17;;
63555;SDS011;49700;48.072;7.800;2024-03-02T03:01:53;6.80;;;4.43;;
63555;SDS011;49700;48.072;7.800;2024-03-02T03:04:19;4.37;;;3.67;;
63555;SDS011;49700;48.072;7.800;2024-03-02T03:06:45;5.17;;;4.37;;
63555;SDS011;49700;48.072;7.800;2024-03-02T03:09:11;4.90;;;4.00;;
63555;SDS011;49700;48.072;7.800;2024-03-02T03:11:36;6.50;;;3.83;;
63555;SDS011;49700;48.072;7.800;2024-03-02T03:14:02;5.10;;;4.37;;
63555;SDS011;49700;48.072;7.800;2024-03-02T03:16:28;5.03;;;3.60;;
63555;SDS011;49700;48.072;7.800;2024-03-02T03:18:53;4.23;;;3.73;;
63555;SDS011;49700;48.072;7.800;2024-03-02T03:21:18;5.13;;;3.43;;
63555;SDS011;49700;48.072;7.800;2024-03-02T03:23:44;5.37;;;4.20;;
63555;SDS011;49700;48.072;7.800;2024-03-02T03:26:10;3.80;;;3.40;;
63555;SDS011;49700;48.072;7.800;2024-03-02T03:28:35;5.50;;;3.57;;
63555;SDS011;49700;48.072;7.800;2024-03-02T03:31:01;4.70;;;2.97;;
63555;SDS011;49700;48.072;7.800;2024-03-02T03:33:27;5.13;;;3.47;;
63555;SDS011;49700;48.072;7.800;2024-03-02T03:35:52;5.37;;;3.00;;
63555;SDS011;49700;48.072;7.800;2024-03-02T03:38:18;7.13;;;4.82;;
63555;SDS011;49700;48.072;7.800;2024-03-02T03:40:44;5.73;;;4.03;;
63555;SDS011;49700;48.072;7.800;2024-03-02T03:43:10;4.00;;;3.70;;
63555;SDS011;49700;48.072;7.800;2024-03-02T03:45:35;4.10;;;3.40;;
63555;SDS011;49700;48.072;7.800;2024-03-02T03:48:01;4.50;;;4.10;;
63555;SDS011;49700;48.072;7.800;2024-03-02T03:50:27;4.95;;;4.00;;
63555;SDS011;49700;48.072;7.800;2024-03-02T03:52:53;4.20;;;3.60;;
63555;SDS011;49700;48.072;7.800;2024-03-02T03:55:18;6.33;;;3.63;;
63555;SDS011;49700;48.072;7.800;2024-03-02T03:57:44;5.30;;;4.63;;
63555;SDS011;49700;48.072;7.800;2024-03-02T04:00:09;5.03;;;3.73;;
63555;SDS011;49700;48.072;7.800;2024-03-02T04:02:38;3.80;;;2.95;;
63555;SDS011;49700;48.072;7.800;2024-03-02T04:05:03;5.07;;;3.70;;
63555;SDS011;49700;48.072;7.800;2024-03-02T04:07:34;5.30;;;4.07;;
63555;SDS011;49700;48.072;7.800;2024-03-02T04:10:05;3.72;;;3.25;;
63555;SDS011;49700;48.072;7.800;2024-03-02T04:12:35;5.70;;;4.53;;
63555;SDS011;49700;48.072;7.800;2024-03-02T04:15:04;3.70;;;3.38;;
63555;SDS011;49700;48.072;7.800;2024-03-02T04:17:31;4.03;;;3.63;;
63555;SDS011;49700;48.072;7.800;2024-03-02T04:19:58;5.22;;;3.50;;
63555;SDS011;49700;48.072;7.800;2024-03-02T04:22:24;4.20;;;3.90;;
63555;SDS011;49700;48.072;7.800;2024-03-02T04:24:49;5.00;;;3.50;;
63555;SDS011;49700;48.072;7.800;2024-03-02T04:27:14;6.77;;;2.80;;
63555;SDS011;49700;48.072;7.800;2024-03-02T04:29:40;4.10;;;3.30;;
63555;SDS011;49700;48.072;7.800;2024-03-02T04:32:05;4.50;;;3.67;;
63555;SDS011;49700;48.072;7.800;2024-03-02T04:34:31;3.73;;;3.40;;
63555;SDS011;49700;48.072;7.800;2024-03-02T04:36:56;3.60;;;3.10;;
63555;SDS011;49700;48.072;7.800;2024-03-02T04:39:21;5.93;;;4.90;;
63555;SDS011;49700;48.072;7.800;2024-03-02T04:41:47;4.80;;;4.40;;
63555;SDS011;49700;48.072;7.800;2024-03-02T04:44:13;3.70;;;3.40;;
63555;SDS011;49700;48.072;7.800;2024-03-02T04:46:38;3.53;;;3.23;;
63555;SDS011;49700;48.072;7.800;2024-03-02T04:49:03;3.17;;;2.83;;
63555;SDS011;49700;48.072;7.800;2024-03-02T04:51:29;5.67;;;3.73;;
63555;SDS011;49700;48.072;7.800;2024-03-02T04:53:54;7.20;;;3.30;;
63555;SDS011;49700;48.072;7.800;2024-03-02T04:56:19;5.33;;;4.13;;
63555;SDS011;49700;48.072;7.800;2024-03-02T04:58:47;4.78;;;4.28;;
63555;SDS011;49700;48.072;7.800;2024-03-02T05:01:13;6.17;;;3.80;;
63555;SDS011;49700;48.072;7.800;2024-03-02T05:03:38;8.23;;;4.60;;
63555;SDS011;49700;48.072;7.800;2024-03-02T05:06:04;4.20;;;3.60;;
63555;SDS011;49700;48.072;7.800;2024-03-02T05:08:29;5.97;;;4.20;;
63555;SDS011;49700;48.072;7.800;2024-03-02T05:10:54;3.50;;;3.20;;
63555;SDS011;49700;48.072;7.800;2024-03-02T05:13:20;4.30;;;4.00;;
63555;SDS011;49700;48.072;7.800;2024-03-02T05:15:46;4.13;;;3.80;;
63555;SDS011;49700;48.072;7.800;2024-03-02T05:18:11;4.60;;;3.90;;
63555;SDS011;49700;48.072;7.800;2024-03-02T05:20:37;3.90;;;3.50;;
63555;SDS011;49700;48.072;7.800;2024-03-02T05:23:02;4.30;;;3.63;;
63555;SDS011;49700;48.072;7.800;2024-03-02T05:25:28;4.30;;;3.90;;
63555;SDS011;49700;48.072;7.800;2024-03-02T05:27:53;3.80;;;3.50;;
63555;SDS011;49700;48.072;7.800;2024-03-02T05:30:19;7.87;;;3.43;;
63555;SDS011;49700;48.072;7.800;2024-03-02T05:32:44;4.93;;;3.27;;
63555;SDS011;49700;48.072;7.800;2024-03-02T05:35:10;4.77;;;3.93;;
63555;SDS011;49700;48.072;7.800;2024-03-02T05:37:37;7.15;;;3.90;;
63555;SDS011;49700;48.072;7.800;2024-03-02T05:40:04;6.65;;;4.45;;
63555;SDS011;49700;48.072;7.800;2024-03-02T05:42:30;5.82;;;4.38;;
63555;SDS011;49700;48.072;7.800;2024-03-02T05:44:56;6.00;;;4.40;;
63555;SDS011;49700;48.072;7.800;2024-03-02T05:47:21;6.20;;;4.13;;
63555;SDS011;49700;48.072;7.800;2024-03-02T05:49:46;5.17;;;4.57;;
63555;SDS011;49700;48.072;7.800;2024-03-02T05:52:12;3.87;;;3.13;;
63555;SDS011;49700;48.072;7.800;2024-03-02T05:54:37;4.43;;;4.00;;
63555;SDS011;49700;48.072;7.800;2024-03-02T05:57:03;5.68;;;5.18;;
63555;SDS011;49700;48.072;7.800;2024-03-02T05:59:42;5.82;;;3.67;;
63555;SDS011;49700;48.072;7.800;2024-03-02T06:02:08;5.05;;;3.58;;
63555;SDS011;49700;48.072;7.800;2024-03-02T06:04:34;4.73;;;4.20;;
63555;SDS011;49700;48.072;7.800;2024-03-02T06:06:59;5.53;;;3.90;;
63555;SDS011;49700;48.072;7.800;2024-03-02T06:09:24;6.15;;;5.35;;
63555;SDS011;49700;48.072;7.800;2024-03-02T06:11:51;5.95;;;4.43;;
63555;SDS011;49700;48.072;7.800;2024-03-02T06:14:16;5.60;;;4.23;;
63555;SDS011;49700;48.072;7.800;2024-03-02T06:16:42;4.23;;;3.67;;
63555;SDS011;49700;48.072;7.800;2024-03-02T06:19:07;5.47;;;4.13;;
63555;SDS011;49700;48.072;7.800;2024-03-02T06:21:33;5.90;;;4.10;;
63555;SDS011;49700;48.072;7.800;2024-03-02T06:23:58;4.10;;;3.70;;
63555;SDS011;49700;48.072;7.800;2024-03-02T06:26:24;6.40;;;4.77;;
63555;SDS011;49700;48.072;7.800;2024-03-02T06:28:49;6.10;;;3.47;;
63555;SDS011;49700;48.072;7.800;2024-03-02T06:31:14;4.63;;;3.93;;
63555;SDS011;49700;48.072;7.800;2024-03-02T06:33:40;4.80;;;3.70;;
63555;SDS011;49700;48.072;7.800;2024-03-02T06:36:06;6.25;;;4.40;;
63555;SDS011;49700;48.072;7.800;2024-03-02T06:38:37;7.10;;;3.95;;
63555;SDS011;49700;48.072;7.800;2024-03-02T06:41:02;5.60;;;5.20;;
63555;SDS011;49700;48.072;7.800;2024-03-02T06:43:28;6.40;;;5.80;;
63555;SDS011;49700;48.072;7.800;2024-03-02T06:45:53;6.60;;;6.00;;
63555;SDS011;49700;48.072;7.800;2024-03-02T06:48:19;6.87;;;6.27;;
63555;SDS011;49700;48.072;7.800;2024-03-02T06:50:48;6.38;;;5.22;;
63555;SDS011;49700;48.072;7.800;2024-03-02T06:53:14;6.43;;;5.60;;
63555;SDS011;49700;48.072;7.800;2024-03-02T06:55:43;7.00;;;5.75;;
63555;SDS011;49700;48.072;7.800;2024-03-02T06:58:09;8.75;;;6.32;;
63555;SDS011;49700;48.072;7.800;2024-03-02T07:00:35;6.05;;;5.13;;
63555;SDS011;49700;48.072;7.800;2024-03-02T07:03:01;6.20;;;5.60;;
63555;SDS011;49700;48.072;7.800;2024-03-02T07:05:27;8.43;;;5.17;;
63555;SDS011;49700;48.072;7.800;2024-03-02T07:07:52;7.40;;;5.30;;
63555;SDS011;49700;48.072;7.800;2024-03-02T07:10:18;7.10;;;5.77;;
63555;SDS011;49700;48.072;7.800;2024-03-02T07:12:43;6.13;;;5.43;;
63555;SDS011;49700;48.072;7.800;2024-03-02T07:15:09;7.10;;;5.53;;
63555;SDS011;49700;48.072;7.800;2024-03-02T07:17:53;5.63;;;5.07;;
63555;SDS011;49700;48.072;7.800;2024-03-02T07:20:19;6.07;;;5.07;;
63555;SDS011;49700;48.072;7.800;2024-03-02T07:22:44;8.30;;;6.90;;
63555;SDS011;49700;48.072;7.800;2024-03-02T07:25:09;10.83;;;7.93;;
63555;SDS011;49700;48.072;7.800;2024-03-02T07:27:35;10.40;;;8.20;;
63555;SDS011;49700;48.072;7.800;2024-03-02T07:30:02;9.90;;;7.50;;
63555;SDS011;49700;48.072;7.800;2024-03-02T07:32:27;10.73;;;7.40;;
63555;SDS011;49700;48.072;7.800;2024-03-02T07:34:53;9.70;;;8.33;;
63555;SDS011;49700;48.072;7.800;2024-03-02T07:37:18;9.70;;;7.70;;
63555;SDS011;49700;48.072;7.800;2024-03-02T07:39:44;9.40;;;6.57;;
63555;SDS011;49700;48.072;7.800;2024-03-02T07:42:10;8.50;;;7.70;;
63555;SDS011;49700;48.072;7.800;2024-03-02T07:44:35;10.43;;;6.00;;
63555;SDS011;49700;48.072;7.800;2024-03-02T07:47:01;6.50;;;5.30;;
63555;SDS011;49700;48.072;7.800;2024-03-02T07:49:26;3.63;;;3.33;;
63555;SDS011;49700;48.072;7.800;2024-03-02T07:51:52;6.83;;;3.43;;
63555;SDS011;49700;48.072;7.800;2024-03-02T07:54:17;4.13;;;3.13;;
63555;SDS011;49700;48.072;7.800;2024-03-02T07:56:43;4.20;;;3.10;;
63555;SDS011;49700;48.072;7.800;2024-03-02T07:59:08;3.00;;;2.73;;
63555;SDS011;49700;48.072;7.800;2024-03-02T08:01:33;3.77;;;3.43;;
63555;SDS011;49700;48.072;7.800;2024-03-02T08:03:59;4.80;;;3.17;;
63555;SDS011;49700;48.072;7.800;2024-03-02T08:06:26;4.90;;;3.80;;
63555;SDS011;49700;48.072;7.800;2024-03-02T08:08:59;5.30;;;4.90;;
63555;SDS011;49700;48.072;7.800;2024-03-02T08:11:26;5.78;;;4.65;;
63555;SDS011;49700;48.072;7.800;2024-03-02T08:13:56;3.97;;;3.67;;
63555;SDS011;49700;48.072;7.800;2024-03-02T08:16:24;4.50;;;4.10;;
63555;SDS011;49700;48.072;7.800;2024-03-02T08:18:50;5.05;;;3.83;;
63555;SDS011;49700;48.072;7.800;2024-03-02T08:21:16;4.27;;;3.97;;
63555;SDS011;49700;48.072;7.800;2024-03-02T08:23:42;5.13;;;4.63;;
63555;SDS011;49700;48.072;7.800;2024-03-02T08:26:08;3.47;;;3.15;;
63555;SDS011;49700;48.072;7.800;2024-03-02T08:28:34;4.60;;;3.63;;
63555;SDS011;49700;48.072;7.800;2024-03-02T08:30:59;3.90;;;3.60;;
63555;SDS011;49700;48.072;7.800;2024-03-02T08:33:25;6.40;;;3.90;;
63555;SDS011;49700;48.072;7.800;2024-03-02T08:35:50;5.50;;;2.90;;
63555;SDS011;49700;48.072;7.800;2024-03-02T08:38:16;3.00;;;2.00;;
63555;SDS011;49700;48.072;7.800;2024-03-02T08:40:42;1.70;;;1.60;;
63555;SDS011;49700;48.072;7.800;2024-03-02T08:43:07;2.33;;;1.50;;
63555;SDS011;49700;48.072;7.800;2024-03-02T08:45:33;1.67;;;1.37;;
63555;SDS011;49700;48.072;7.800;2024-03-02T08:47:59;5.22;;;2.00;;
63555;SDS011;49700;48.072;7.800;2024-03-02T08:50:25;3.00;;;1.40;;
63555;SDS011;49700;48.072;7.800;2024-03-02T08:52:50;2.17;;;1.80;;
63555;SDS011;49700;48.072;7.800;2024-03-02T08:55:15;1.43;;;1.33;;
63555;SDS011;49700;48.072;7.800;2024-03-02T08:57:41;2.27;;;1.50;;
63555;SDS011;49700;48.072;7.800;2024-03-02T09:00:07;3.00;;;1.80;;
63555;SDS011;49700;48.072;7.800;2024-03-02T09:02:33;1.95;;;1.70;;
63555;SDS011;49700;48.072;7.800;2024-03-02T09:04:59;2.37;;;2.17;;
63555;SDS011;49700;48.072;7.800;2024-03-02T09:07:25;2.25;;;1.60;;
63555;SDS011;49700;48.072;7.800;2024-03-02T09:09:50;3.03;;;2.25;;
63555;SDS011;49700;48.072;7.800;2024-03-02T09:12:17;2.65;;;2.22;;
63555;SDS011;49700;48.072;7.800;2024-03-02T09:14:43;3.13;;;1.90;;
63555;SDS011;49700;48.072;7.800;2024-03-02T09:17:09;2.70;;;1.50;;
63555;SDS011;49700;48.072;7.800;2024-03-02T09:19:36;3.13;;;1.60;;
63555;SDS011;49700;48.072;7.800;2024-03-02T09:22:02;1.73;;;1.57;;
63555;SDS011;49700;48.072;7.800;2024-03-02T09:24:28;1.77;;;1.67;;
63555;SDS011;49700;48.072;7.800;2024-03-02T09:26:53;2.03;;;1.40;;
63555;SDS011;49700;48.072;7.800;2024-03-02T09:29:19;1.50;;;1.30;;
63555;SDS011;49700;48.072;7.800;2024-03-02T09:31:45;2.95;;;1.40;;
63555;SDS011;49700;48.072;7.800;2024-03-02T09:34:12;2.17;;;1.80;;
63555;SDS011;49700;48.072;7.800;2024-03-02T09:36:37;1.43;;;1.00;;
63555;SDS011;49700;48.072;7.800;2024-03-02T09:39:03;2.20;;;1.40;;
63555;SDS011;49700;48.072;7.800;2024-03-02T09:41:29;1.83;;;1.30;;
63555;SDS011;49700;48.072;7.800;2024-03-02T09:43:54;1.70;;;1.60;;
63555;SDS011;49700;48.072;7.800;2024-03-02T09:46:20;2.40;;;1.40;;
63555;SDS011;49700;48.072;7.800;2024-03-02T09:48:46;1.60;;;1.40;;
63555;SDS011;49700;48.072;7.800;2024-03-02T09:51:11;1.60;;;1.20;;
63555;SDS011;49700;48.072;7.800;2024-03-02T09:53:37;1.60;;;1.20;;
63555;SDS011;49700;48.072;7.800;2024-03-02T09:56:03;1.87;;;1.20;;
63555;SDS011;49700;48.072;7.800;2024-03-02T09:58:29;1.90;;;1.70;;
63555;SDS011;49700;48.072;7.800;2024-03-02T10:00:55;1.60;;;1.50;;
63555;SDS011;49700;48.072;7.800;2024-03-02T10:03:24;1.50;;;1.40;;
63555;SDS011;49700;48.072;7.800;2024-03-02T10:05:50;2.17;;;1.47;;
63555;SDS011;49700;48.072;7.800;2024-03-02T10:08:15;3.05;;;1.80;;
63555;SDS011;49700;48.072;7.800;2024-03-02T10:10:41;2.10;;;1.77;;
63555;SDS011;49700;48.072;7.800;2024-03-02T10:13:10;1.75;;;1.33;;
63555;SDS011;49700;48.072;7.800;2024-03-02T10:15:37;2.17;;;1.70;;
63555;SDS011;49700;48.072;7.800;2024-03-02T10:18:03;1.48;;;1.30;;
63555;SDS011;49700;48.072;7.800;2024-03-02T10:20:29;2.42;;;1.25;;
63555;SDS011;49700;48.072;7.800;2024-03-02T10:22:55;3.20;;;1.40;;
63555;SDS011;49700;48.072;7.800;2024-03-02T10:25:31;1.40;;;1.10;;
63555;SDS011;49700;48.072;7.800;2024-03-02T10:27:57;1.27;;;1.13;;
63555;SDS011;49700;48.072;7.800;2024-03-02T10:30:25;2.15;;;1.00;;
63555;SDS011;49700;48.072;7.800;2024-03-02T10:32:52;1.15;;;1.05;;
63555;SDS011;49700;48.072;7.800;2024-03-02T10:35:19;1.13;;;1.02;;
63555;SDS011;49700;48.072;7.800;2024-03-02T10:37:47;1.50;;;1.00;;
63555;SDS011;49700;48.072;7.800;2024-03-02T10:40:13;1.30;;;1.20;;
63555;SDS011;49700;48.072;7.800;2024-03-02T10:42:39;1.53;;;1.00;;
63555;SDS011;49700;48.072;7.800;2024-03-02T10:45:07;1.00;;;0.90;;
63555;SDS011;49700;48.072;7.800;2024-03-02T10:47:35;1.00;;;0.90;;
63555;SDS011;49700;48.072;7.800;2024-03-02T10:50:03;1.10;;;0.83;;
63555;SDS011;49700;48.072;7.800;2024-03-02T10:52:36;1.13;;;1.00;;
63555;SDS011;49700;48.072;7.800;2024-03-02T10:55:02;2.07;;;0.83;;
63555;SDS011;49700;48.072;7.800;2024-03-02T10:57:36;0.90;;;0.90;;
63555;SDS011;49700;48.072;7.800;2024-03-02T11:00:07;1.03;;;0.90;;
63555;SDS011;49700;48.072;7.800;2024-03-02T11:02:40;1.30;;;1.03;;
63555;SDS011;49700;48.072;7.800;2024-03-02T11:05:13;1.00;;;1.00;;
63555;SDS011;49700;48.072;7.800;2024-03-02T11:07:46;1.73;;;1.33;;
63555;SDS011;49700;48.072;7.800;2024-03-02T11:10:11;1.43;;;1.10;;
63555;SDS011;49700;48.072;7.800;2024-03-02T11:12:44;1.30;;;1.10;;
63555;SDS011;49700;48.072;7.800;2024-03-02T11:15:18;1.67;;;1.30;;
63555;SDS011;49700;48.072;7.800;2024-03-02T11:17:47;1.20;;;1.10;;
63555;SDS011;49700;48.072;7.800;2024-03-02T11:20:13;1.00;;;0.90;;
63555;SDS011;49700;48.072;7.800;2024-03-02T11:22:40;1.50;;;0.97;;
63555;SDS011;49700;48.072;7.800;2024-03-02T11:25:05;1.47;;;1.10;;
63555;SDS011;49700;48.072;7.800;2024-03-02T11:30:56;1.23;;;1.03;;
63555;SDS011;49700;48.072;7.800;2024-03-02T11:33:03;2.13;;;0.90;;
63555;SDS011;49700;48.072;7.800;2024-03-02T11:35:45;1.13;;;1.00;;
63555;SDS011;49700;48.072;7.800;2024-03-02T11:38:13;2.50;;;1.43;;
63555;SDS011;49700;48.072;7.800;2024-03-02T11:40:39;1.37;;;1.00;;
63555;SDS011;49700;48.072;7.800;2024-03-02T11:43:05;1.33;;;1.20;;
63555;SDS011;49700;48.072;7.800;2024-03-02T11:45:31;1.10;;;1.00;;
63555;SDS011;49700;48.072;7.800;2024-03-02T11:47:59;1.13;;;1.03;;
63555;SDS011;49700;48.072;7.800;2024-03-02T11:50:41;1.20;;;1.10;;
63555;SDS011;49700;48.072;7.800;2024-03-02T11:53:09;1.20;;;0.90;;
63555;SDS011;49700;48.072;7.800;2024-03-02T11:55:35;1.57;;;1.03;;
63555;SDS011;49700;48.072;7.800;2024-03-02T11:58:02;1.27;;;1.13;;
63555;SDS011;49700;48.072;7.800;2024-03-02T12:00:30;2.00;;;1.50;;
63555;SDS011;49700;48.072;7.800;2024-03-02T12:03:00;1.10;;;1.00;;
63555;SDS011;49700;48.072;7.800;2024-03-02T12:05:33;0.97;;;0.97;;
63555;SDS011;49700;48.072;7.800;2024-03-02T12:08:04;2.20;;;1.10;;
63555;SDS011;49700;48.072;7.800;2024-03-02T12:10:31;1.73;;;0.90;;
63555;SDS011;49700;48.072;7.800;2024-03-02T12:12:58;1.40;;;0.90;;
63555;SDS011;49700;48.072;7.800;2024-03-02T12:15:28;1.10;;;1.00;;
63555;SDS011;49700;48.072;7.800;2024-03-02T12:17:55;0.80;;;0.80;;
63555;SDS011;49700;48.072;7.800;2024-03-02T12:20:22;2.07;;;1.37;;
63555;SDS011;49700;48.072;7.800;2024-03-02T12:22:52;1.67;;;1.00;;
63555;SDS011;49700;48.072;7.800;2024-03-02T12:25:21;3.07;;;1.40;;
63555;SDS011;49700;48.072;7.800;2024-03-02T12:27:49;1.83;;;1.70;;
63555;SDS011;49700;48.072;7.800;2024-03-02T12:30:18;1.80;;;1.00;;
63555;SDS011;49700;48.072;7.800;2024-03-02T12:32:45;2.00;;;1.40;;
63555;SDS011;49700;48.072;7.800;2024-03-02T12:35:11;4.57;;;1.90;;
63555;SDS011;49700;48.072;7.800;2024-03-02T12:37:43;4.40;;;3.00;;
63555;SDS011;49700;48.072;7.800;2024-03-02T12:40:13;5.70;;;4.30;;
63555;SDS011;49700;48.072;7.800;2024-03-02T12:42:39;5.80;;;4.30;;
63555;SDS011;49700;48.072;7.800;2024-03-02T12:45:07;4.43;;;2.27;;
63555;SDS011;49700;48.072;7.800;2024-03-02T12:47:34;1.97;;;1.53;;
63555;SDS011;49700;48.072;7.800;2024-03-02T12:50:00;1.87;;;1.20;;
63555;SDS011;49700;48.072;7.800;2024-03-02T12:52:26;1.90;;;1.50;;
63555;SDS011;49700;48.072;7.800;2024-03-02T12:54:51;2.33;;;1.70;;
63555;SDS011;49700;48.072;7.800;2024-03-02T12:57:20;1.63;;;1.10;;
63555;SDS011;49700;48.072;7.800;2024-03-02T12:59:46;2.17;;;1.20;;
63555;SDS011;49700;48.072;7.800;2024-03-02T13:02:19;1.00;;;0.90;;
63555;SDS011;49700;48.072;7.800;2024-03-02T13:04:51;1.40;;;0.90;;
63555;SDS011;49700;48.072;7.800;2024-03-02T13:07:19;1.00;;;0.80;;
63555;SDS011;49700;48.072;7.800;2024-03-02T13:09:47;1.87;;;1.00;;
63555;SDS011;49700;48.072;7.800;2024-03-02T13:12:15;1.97;;;1.17;;
63555;SDS011;49700;48.072;7.800;2024-03-02T13:14:41;2.10;;;1.20;;
63555;SDS011;49700;48.072;7.800;2024-03-02T13:17:07;1.10;;;1.00;;
63555;SDS011;49700;48.072;7.800;2024-03-02T13:19:34;1.17;;;0.90;;
63555;SDS011;49700;48.072;7.800;2024-03-02T13:21:59;1.00;;;0.90;;
63555;SDS011;49700;48.072;7.800;2024-03-02T13:24:27;1.47;;;0.90;;
63555;SDS011;49700;48.072;7.800;2024-03-02T13:26:54;2.20;;;0.83;;
63555;SDS011;49700;48.072;7.800;2024-03-02T13:29:22;1.90;;;1.13;;
63555;SDS011;49700;48.072;7.800;2024-03-02T13:31:47;0.70;;;0.60;;
63555;SDS011;49700;48.072;7.800;2024-03-02T13:34:13;0.90;;;0.80;;
63555;SDS011;49700;48.072;7.800;2024-03-02T13:36:39;1.30;;;1.20;;
63555;SDS011;49700;48.072;7.800;2024-03-02T13:39:04;1.00;;;0.90;;
63555;SDS011;49700;48.072;7.800;2024-03-02T13:41:35;1.47;;;0.90;;
63555;SDS011;49700;48.072;7.800;2024-03-02T13:44:01;1.43;;;1.20;;
63555;SDS011;49700;48.072;7.800;2024-03-02T13:46:27;1.13;;;0.90;;
63555;SDS011;49700;48.072;7.800;2024-03-02T13:48:53;1.20;;;0.90;;
63555;SDS011;49700;48.072;7.800;2024-03-02T13:51:23;1.70;;;1.60;;
63555;SDS011;49700;48.072;7.800;2024-03-02T13:53:50;1.27;;;1.00;;
63555;SDS011;49700;48.072;7.800;2024-03-02T13:56:16;1.57;;;1.00;;
63555;SDS011;49700;48.072;7.800;2024-03-02T13:58:42;1.40;;;1.10;;
63555;SDS011;49700;48.072;7.800;2024-03-02T14:01:08;2.77;;;1.20;;
63555;SDS011;49700;48.072;7.800;2024-03-02T14:03:34;2.17;;;0.90;;
63555;SDS011;49700;48.072;7.800;2024-03-02T14:06:00;1.77;;;0.97;;
63555;SDS011;49700;48.072;7.800;2024-03-02T14:08:25;1.97;;;1.10;;
63555;SDS011;49700;48.072;7.800;2024-03-02T14:10:51;1.73;;;1.10;;
63555;SDS011;49700;48.072;7.800;2024-03-02T14:13:17;1.30;;;0.97;;
63555;SDS011;49700;48.072;7.800;2024-03-02T14:15:42;1.43;;;1.10;;
63555;SDS011;49700;48.072;7.800;2024-03-02T14:18:08;1.10;;;1.00;;
63555;SDS011;49700;48.072;7.800;2024-03-02T14:20:36;1.10;;;0.90;;
63555;SDS011;49700;48.072;7.800;2024-03-02T14:23:02;1.30;;;0.97;;
63555;SDS011;49700;48.072;7.800;2024-03-02T14:25:28;1.17;;;1.00;;
63555;SDS011;49700;48.072;7.800;2024-03-02T14:27:56;1.10;;;0.90;;
63555;SDS011;49700;48.072;7.800;2024-03-02T14:30:23;1.27;;;0.90;;
63555;SDS011;49700;48.072;7.800;2024-03-02T14:32:48;2.00;;;1.33;;
63555;SDS011;49700;48.072;7.800;2024-03-02T14:35:14;1.53;;;1.00;;
63555;SDS011;49700;48.072;7.800;2024-03-02T14:37:40;2.50;;;0.90;;
63555;SDS011;49700;48.072;7.800;2024-03-02T14:40:05;1.17;;;1.07;;
63555;SDS011;49700;48.072;7.800;2024-03-02T14:42:33;2.50;;;1.23;;
63555;SDS011;49700;48.072;7.800;2024-03-02T14:44:59;1.50;;;1.30;;
63555;SDS011;49700;48.072;7.800;2024-03-02T14:47:24;1.43;;;1.00;;
63555;SDS011;49700;48.072;7.800;2024-03-02T14:49:49;1.73;;;1.00;;
63555;SDS011;49700;48.072;7.800;2024-03-02T14:52:15;4.20;;;1.30;;